createdAt,value
2018-07-15T02:22:50.120Z,3
2018-07-15T02:31:50.615Z,7
2018-07-15T02:35:50.841Z,10
2018-07-15T02:38:51.030Z,13
2018-07-15T02:40:51.677Z,17
2018-07-15T02:42:21.280Z,20
2018-07-15T02:43:21.298Z,23
2018-07-15T02:44:51.409Z,27
2018-07-15T02:45:51.586Z,30
2018-07-15T02:46:21.650Z,33
2018-07-15T02:47:21.601Z,37
2018-07-15T02:47:51.638Z,40
2018-07-15T02:48:51.646Z,43
2018-07-15T02:49:21.931Z,47
2018-07-15T02:49:51.707Z,50
2018-07-15T02:50:21.733Z,53
2018-07-15T02:50:51.832Z,57
2018-07-15T02:51:21.830Z,60
2018-07-15T02:51:51.824Z,63
2018-07-15T02:52:21.851Z,67
2018-07-15T02:52:51.901Z,73
2018-07-15T02:53:21.917Z,77
2018-07-15T02:53:51.942Z,80
2018-07-15T02:54:22.489Z,87
2018-07-15T02:54:52.023Z,90
2018-07-15T02:55:22.089Z,97
2018-07-15T02:55:52.085Z,103
2018-07-15T02:56:22.102Z,107
2018-07-15T02:56:52.127Z,113
2018-07-15T02:57:22.230Z,120
2018-07-15T02:57:52.243Z,127
2018-07-15T02:58:22.217Z,137
2018-07-15T02:58:52.253Z,143
2018-07-15T02:59:22.415Z,150
2018-07-15T02:59:52.482Z,160
2018-07-15T03:00:22.390Z,167
2018-07-15T03:00:52.404Z,177
2018-07-15T03:01:22.459Z,187
2018-07-15T03:01:52.672Z,197
2018-07-15T03:02:22.748Z,207
2018-07-15T03:02:52.782Z,213
2018-07-15T03:03:22.806Z,223
2018-07-15T03:03:52.809Z,237
2018-07-15T03:04:22.873Z,247
2018-07-15T03:04:53.006Z,260
2018-07-15T03:05:22.924Z,273
2018-07-15T03:05:52.900Z,287
2018-07-15T03:06:22.953Z,300
2018-07-15T03:06:53.010Z,313
2018-07-15T03:07:23.033Z,327
2018-07-15T03:07:53.084Z,343
2018-07-15T03:08:23.080Z,357
2018-07-15T03:08:53.079Z,373
2018-07-15T03:09:23.192Z,390
2018-07-15T03:09:53.178Z,407
2018-07-15T03:10:23.170Z,423
2018-07-15T03:10:53.246Z,437
2018-07-15T03:11:23.326Z,453
2018-07-15T03:11:53.330Z,473
2018-07-15T03:12:23.371Z,490
2018-07-15T03:12:53.396Z,510
2018-07-15T03:13:23.447Z,530
2018-07-15T03:13:53.439Z,550
2018-07-15T03:14:23.431Z,570
2018-07-15T03:14:53.625Z,593
2018-07-15T03:15:23.541Z,613
2018-07-15T03:15:53.554Z,637
2018-07-15T03:16:23.571Z,653
2018-07-15T03:16:53.604Z,677
2018-07-15T03:17:23.788Z,700
2018-07-15T03:17:53.648Z,727
2018-07-15T03:18:23.725Z,750
2018-07-15T03:18:53.705Z,777
2018-07-15T03:19:23.731Z,800
2018-07-15T03:19:53.888Z,827
2018-07-15T03:20:23.796Z,853
2018-07-15T03:20:53.829Z,877
2018-07-15T03:21:23.859Z,903
2018-07-15T03:21:53.879Z,930
2018-07-15T03:22:23.918Z,960
2018-07-15T03:22:53.957Z,990
2018-07-15T03:23:23.978Z,1020
2018-07-15T03:23:54.056Z,1050
2018-07-15T03:24:24.030Z,1077
2018-07-15T03:24:54.233Z,1107
2018-07-15T03:25:24.147Z,1140
2018-07-15T03:25:54.132Z,1173
2018-07-15T03:26:24.156Z,1207
2018-07-15T03:26:54.222Z,1240
2018-07-15T03:27:24.230Z,1273
2018-07-15T03:27:54.388Z,1303
2018-07-15T03:28:24.278Z,1337
2018-07-15T03:28:54.326Z,1373
2018-07-15T03:29:24.347Z,1410
2018-07-15T03:29:54.557Z,1447
2018-07-15T03:30:24.623Z,1483
2018-07-15T03:30:54.469Z,1517
2018-07-15T03:31:24.528Z,1557
2018-07-15T03:31:54.516Z,1593
2018-07-15T03:32:24.546Z,1633
2018-07-15T03:32:54.619Z,1673
2018-07-15T03:33:24.588Z,1707
2018-07-15T03:33:54.642Z,1743
2018-07-15T03:34:24.650Z,1783
2018-07-15T03:34:54.732Z,1823
2018-07-15T03:35:24.824Z,1863
2018-07-15T03:35:54.784Z,1900
2018-07-15T03:36:24.776Z,1937
2018-07-15T03:36:54.806Z,1977
2018-07-15T03:37:24.836Z,2017
2018-07-15T03:37:54.874Z,2057
2018-07-15T03:38:24.903Z,2097
2018-07-15T03:38:54.935Z,2133
2018-07-15T03:39:24.961Z,2173
2018-07-15T03:39:55.097Z,2217
2018-07-15T03:40:25.139Z,2257
2018-07-15T03:40:55.093Z,2300
2018-07-15T03:41:25.092Z,2343
2018-07-15T03:41:55.110Z,2380
2018-07-15T03:42:25.174Z,2423
2018-07-15T03:42:55.180Z,2467
2018-07-15T03:43:25.202Z,2507
2018-07-15T03:43:55.276Z,2550
2018-07-15T03:44:25.280Z,2590
2018-07-15T03:44:55.400Z,2630
2018-07-15T03:45:25.485Z,2673
2018-07-15T03:45:55.395Z,2717
2018-07-15T03:46:25.430Z,2760
2018-07-15T03:46:55.445Z,2797
2018-07-15T03:47:25.488Z,2840
2018-07-15T03:47:55.531Z,2883
2018-07-15T03:48:25.561Z,2927
2018-07-15T03:48:55.593Z,2970
2018-07-15T03:49:25.613Z,3007
2018-07-15T03:49:55.677Z,3050
2018-07-15T03:50:26.177Z,3093
2018-07-15T03:50:55.684Z,3133
2018-07-15T03:51:25.736Z,3177
2018-07-15T03:51:55.825Z,3217
2018-07-15T03:52:25.806Z,3260
2018-07-15T03:52:55.832Z,3307
2018-07-15T03:53:25.849Z,3350
2018-07-15T03:53:55.900Z,3393
2018-07-15T03:54:25.911Z,3433
2018-07-15T03:54:55.959Z,3477
2018-07-15T03:55:26.097Z,3520
2018-07-15T03:55:56.039Z,3563
2018-07-15T03:56:26.040Z,3607
2018-07-15T03:56:56.086Z,3647
2018-07-15T03:57:26.477Z,3690
2018-07-15T03:57:56.152Z,3733
2018-07-15T03:58:26.161Z,3777
2018-07-15T03:58:56.211Z,3817
2018-07-15T03:59:26.216Z,3853
2018-07-15T03:59:56.257Z,3897
2018-07-15T04:00:26.375Z,3933
2018-07-15T04:00:56.348Z,3973
2018-07-15T04:01:26.341Z,4010
2018-07-15T04:01:56.405Z,4047
2018-07-15T04:02:26.401Z,4077
2018-07-15T04:02:56.465Z,4113
2018-07-15T04:03:26.463Z,4147
2018-07-15T04:03:56.497Z,4183
2018-07-15T04:04:26.514Z,4217
2018-07-15T04:04:56.550Z,4250
2018-07-15T04:05:26.704Z,4283
2018-07-15T04:05:56.616Z,4320
2018-07-15T04:06:26.680Z,4357
2018-07-15T04:06:56.702Z,4390
2018-07-15T04:07:26.733Z,4427
2018-07-15T04:07:56.728Z,4460
2018-07-15T04:08:26.812Z,4490
2018-07-15T04:08:56.808Z,4527
2018-07-15T04:09:27.036Z,4563
2018-07-15T04:09:56.849Z,4600
2018-07-15T04:10:27.021Z,4637
2018-07-15T04:10:56.906Z,4677
2018-07-15T04:11:26.939Z,4710
2018-07-15T04:11:56.956Z,4750
2018-07-15T04:12:27.017Z,4787
2018-07-15T04:12:57.021Z,4830
2018-07-15T04:13:27.044Z,4870
2018-07-15T04:13:57.074Z,4907
2018-07-15T04:14:27.191Z,4947
2018-07-15T04:14:57.143Z,4987
2018-07-15T04:15:27.306Z,5023
2018-07-15T04:15:57.277Z,5060
2018-07-15T04:16:27.311Z,5097
2018-07-15T04:16:57.290Z,5130
2018-07-15T04:17:27.337Z,5167
2018-07-15T04:17:57.377Z,5203
2018-07-15T04:18:27.398Z,5243
2018-07-15T04:18:57.423Z,5283
2018-07-15T04:19:27.454Z,5320
2018-07-15T04:19:57.477Z,5357
2018-07-15T04:20:28.019Z,5393
2018-07-15T04:20:57.546Z,5433
2018-07-15T04:21:27.590Z,5470
2018-07-15T04:21:57.590Z,5507
2018-07-15T04:22:27.619Z,5543
2018-07-15T04:22:57.641Z,5573
2018-07-15T04:23:27.698Z,5610
2018-07-15T04:23:57.753Z,5643
2018-07-15T04:24:27.748Z,5680
2018-07-15T04:24:57.782Z,5713
2018-07-15T04:25:27.927Z,5747
2018-07-15T04:25:57.831Z,5777
2018-07-15T04:26:27.848Z,5807
2018-07-15T04:26:57.874Z,5840
2018-07-15T04:27:27.909Z,5870
2018-07-15T04:27:57.938Z,5903
2018-07-15T04:28:27.985Z,5933
2018-07-15T04:28:58.013Z,5967
2018-07-15T04:29:28.034Z,5993
2018-07-15T04:29:58.074Z,6023
2018-07-15T04:30:28.616Z,6050
2018-07-15T04:30:58.145Z,6077
2018-07-15T04:31:28.158Z,6103
2018-07-15T04:31:58.232Z,6130
2018-07-15T04:32:28.268Z,6153
2018-07-15T04:32:58.287Z,6177
2018-07-15T04:33:28.358Z,6200
2018-07-15T04:33:58.325Z,6223
2018-07-15T04:34:28.431Z,6250
2018-07-15T04:34:58.399Z,6273
2018-07-15T04:35:28.576Z,6297
2018-07-15T04:35:58.464Z,6317
2018-07-15T04:36:28.512Z,6340
2018-07-15T04:36:58.517Z,6363
2018-07-15T04:37:28.568Z,6390
2018-07-15T04:37:58.620Z,6413
2018-07-15T04:38:28.652Z,6443
2018-07-15T04:38:58.698Z,6470
2018-07-15T04:39:28.712Z,6500
2018-07-15T04:39:58.730Z,6527
2018-07-15T04:40:29.268Z,6553
2018-07-15T04:40:58.794Z,6573
2018-07-15T04:41:28.827Z,6593
2018-07-15T04:41:58.854Z,6613
2018-07-15T04:42:28.882Z,6640
2018-07-15T04:42:58.909Z,6667
2018-07-15T04:43:28.951Z,6690
2018-07-15T04:43:59.046Z,6713
2018-07-15T04:44:29.003Z,6737
2018-07-15T04:44:59.045Z,6767
2018-07-15T04:45:29.211Z,6793
2018-07-15T04:45:59.085Z,6823
2018-07-15T04:46:29.121Z,6847
2018-07-15T04:46:59.170Z,6880
2018-07-15T04:47:29.181Z,6913
2018-07-15T04:47:59.195Z,6943
2018-07-15T04:48:29.239Z,6977
2018-07-15T04:48:59.286Z,7003
2018-07-15T04:49:29.302Z,7033
2018-07-15T04:49:59.335Z,7053
2018-07-15T04:50:29.488Z,7080
2018-07-15T04:50:59.389Z,7110
2018-07-15T04:51:29.432Z,7137
2018-07-15T04:51:59.441Z,7160
2018-07-15T04:52:29.495Z,7187
2018-07-15T04:52:59.530Z,7210
2018-07-15T04:53:29.607Z,7237
2018-07-15T04:53:59.550Z,7260
2018-07-15T04:54:29.631Z,7287
2018-07-15T04:54:59.640Z,7313
2018-07-15T04:55:29.761Z,7337
2018-07-15T04:55:59.717Z,7363
2018-07-15T04:56:29.702Z,7387
2018-07-15T04:56:59.731Z,7413
2018-07-15T04:57:29.762Z,7437
2018-07-15T04:57:59.786Z,7463
2018-07-15T04:58:29.830Z,7483
2018-07-15T04:58:59.892Z,7510
2018-07-15T04:59:29.882Z,7533
2018-07-15T04:59:59.910Z,7560
2018-07-15T05:00:30.076Z,7583
2018-07-15T05:00:59.976Z,7607
2018-07-15T05:01:30.046Z,7623
2018-07-15T05:02:01.381Z,7647
2018-07-15T05:02:30.233Z,7663
2018-07-15T05:03:01.087Z,8083
2018-07-15T05:03:30.313Z,9387
2018-07-15T05:04:01.120Z,11140
2018-07-15T05:04:30.399Z,13647
2018-07-15T05:05:01.491Z,16700
2018-07-15T05:05:30.580Z,19320
2018-07-15T05:06:01.006Z,20613
2018-07-15T05:06:30.549Z,20730
2018-07-15T05:07:01.619Z,20270
2018-07-15T05:07:31.022Z,19263
2018-07-15T05:08:01.533Z,16573
2018-07-15T05:08:31.099Z,14777
2018-07-15T05:09:01.598Z,14603
2018-07-15T05:09:31.186Z,14623
2018-07-15T05:10:01.183Z,14870
2018-07-15T05:10:31.717Z,15063
2018-07-15T05:11:01.246Z,15310
2018-07-15T05:11:31.334Z,16363
2018-07-15T05:12:01.360Z,16580
2018-07-15T05:12:31.407Z,15697
2018-07-15T05:13:03.482Z,16170
2018-07-15T05:13:32.643Z,17243
2018-07-15T05:14:02.684Z,20213
2018-07-15T05:14:32.665Z,23090
2018-07-15T05:15:02.704Z,24023
2018-07-15T05:15:32.823Z,24383
2018-07-15T05:16:02.740Z,22390
2018-07-15T05:16:32.770Z,19870
2018-07-15T05:17:02.823Z,18277
2018-07-15T05:17:32.831Z,18013
2018-07-15T05:18:02.902Z,19367
2018-07-15T05:18:32.974Z,19497
2018-07-15T05:19:02.933Z,19267
2018-07-15T05:19:32.987Z,15643
2018-07-15T05:20:03.020Z,13807
2018-07-15T05:20:33.277Z,11483
2018-07-15T05:21:03.139Z,9420
2018-07-15T05:21:33.072Z,9127
2018-07-15T05:22:03.149Z,8733
2018-07-15T05:22:33.140Z,8657
2018-07-15T05:23:03.209Z,8660
2018-07-15T05:23:33.220Z,8917
2018-07-15T05:24:03.347Z,9330
2018-07-15T05:24:33.322Z,9463
2018-07-15T05:25:03.436Z,9387
2018-07-15T05:25:33.527Z,9087
2018-07-15T05:26:03.410Z,9103
2018-07-15T05:26:33.470Z,9207
2018-07-15T05:27:03.473Z,9240
2018-07-15T05:27:33.525Z,9270
2018-07-15T05:28:03.520Z,9907
2018-07-15T05:28:33.613Z,10587
2018-07-15T05:29:03.576Z,10860
2018-07-15T05:29:33.611Z,10670
2018-07-15T05:30:03.662Z,9807
2018-07-15T05:30:33.670Z,9193
2018-07-15T05:31:03.704Z,9123
2018-07-15T05:31:33.733Z,9090
2018-07-15T05:32:03.761Z,9057
2018-07-15T05:32:33.816Z,9460
2018-07-15T05:33:03.833Z,10677
2018-07-15T05:33:33.861Z,12060
2018-07-15T05:34:03.908Z,13830
2018-07-15T05:34:33.910Z,14407
2018-07-15T05:35:04.013Z,13997
2018-07-15T05:35:33.976Z,14593
2018-07-15T05:36:04.376Z,16690
2018-07-15T05:36:34.332Z,19377
2018-07-15T05:37:04.390Z,21587
2018-07-15T05:37:34.383Z,19297
2018-07-15T05:38:04.439Z,15813
2018-07-15T05:38:34.461Z,12847
2018-07-15T05:39:04.503Z,10320
2018-07-15T05:39:34.552Z,9387
2018-07-15T05:40:04.563Z,9187
2018-07-15T05:40:34.628Z,9977
2018-07-15T05:41:04.694Z,12020
2018-07-15T05:41:34.686Z,13133
2018-07-15T05:42:04.675Z,15040
2018-07-15T05:42:34.757Z,14467
2018-07-15T05:43:04.764Z,14423
2018-07-15T05:43:34.757Z,14010
2018-07-15T05:44:04.795Z,15617
2018-07-15T05:44:34.822Z,13893
2018-07-15T05:45:04.826Z,13413
2018-07-15T05:45:34.920Z,13253
2018-07-15T05:46:04.943Z,13157
2018-07-15T05:46:34.960Z,15197
2018-07-15T05:47:05.017Z,16260
2018-07-15T05:47:35.044Z,17983
2018-07-15T05:48:05.064Z,18330
2018-07-15T05:48:35.043Z,17793
2018-07-15T05:49:05.135Z,18727
2018-07-15T05:49:35.132Z,21277
2018-07-15T05:50:05.218Z,18797
2018-07-15T05:50:35.200Z,16357
2018-07-15T05:51:05.267Z,13217
2018-07-15T05:51:35.272Z,13917
2018-07-15T05:52:05.327Z,13950
2018-07-15T05:52:35.336Z,13847
2018-07-15T05:53:05.367Z,13727
2018-07-15T05:53:35.407Z,11783
2018-07-15T05:54:05.463Z,12697
2018-07-15T05:54:35.411Z,13087
2018-07-15T05:55:05.520Z,14767
2018-07-15T05:55:35.563Z,17153
2018-07-15T05:56:05.514Z,20477
2018-07-15T05:56:35.530Z,24407
2018-07-15T05:57:05.638Z,25243
2018-07-15T05:57:35.630Z,24737
2018-07-15T05:58:05.712Z,20320
2018-07-15T05:58:35.673Z,15407
2018-07-15T05:59:05.741Z,12453
2018-07-15T05:59:35.714Z,11293
2018-07-15T06:00:05.812Z,9593
2018-07-15T06:00:35.815Z,9453
2018-07-15T06:01:06.334Z,9470
2018-07-15T06:01:35.851Z,9573
2018-07-15T06:02:05.879Z,9943
2018-07-15T06:02:35.910Z,10343
2018-07-15T06:03:05.935Z,10527
2018-07-15T06:03:36.054Z,10513
2018-07-15T06:04:05.991Z,10453
2018-07-15T06:04:36.025Z,11917
2018-07-15T06:05:06.054Z,13013
2018-07-15T06:05:36.156Z,14887
2018-07-15T06:06:06.257Z,13797
2018-07-15T06:06:36.231Z,12910
2018-07-15T06:07:06.182Z,11097
2018-07-15T06:07:36.291Z,9757
2018-07-15T06:08:06.265Z,9857
2018-07-15T06:08:36.318Z,9803
2018-07-15T06:09:06.478Z,9430
2018-07-15T06:09:36.498Z,9417
2018-07-15T06:10:06.512Z,9413
2018-07-15T06:10:36.566Z,9417
2018-07-15T06:11:36.786Z,9437
2018-07-15T06:12:06.612Z,9443
2018-07-15T06:12:36.671Z,9460
2018-07-15T06:13:06.653Z,9467
2018-07-15T06:13:36.718Z,9517
2018-07-15T06:14:06.720Z,9537
2018-07-15T06:14:36.777Z,9563
2018-07-15T06:15:06.790Z,9543
2018-07-15T06:15:36.811Z,9553
2018-07-15T06:16:06.892Z,9547
2018-07-15T06:16:36.993Z,9573
2018-07-15T06:17:06.968Z,9593
2018-07-15T06:17:36.935Z,9613
2018-07-15T06:18:07.010Z,9637
2018-07-15T06:18:36.994Z,9660
2018-07-15T06:19:07.035Z,9680
2018-07-15T06:19:37.073Z,9703
2018-07-15T06:20:07.088Z,9720
2018-07-15T06:20:37.159Z,9743
2018-07-15T06:21:07.173Z,9763
2018-07-15T06:21:37.453Z,9790
2018-07-15T06:22:07.234Z,9813
2018-07-15T06:22:37.319Z,9837
2018-07-15T06:23:07.320Z,9863
2018-07-15T06:23:37.315Z,9897
2018-07-15T06:24:07.388Z,10213
2018-07-15T06:24:37.394Z,10087
2018-07-15T06:25:07.441Z,10097
2018-07-15T06:25:37.451Z,10240
2018-07-15T06:26:07.486Z,10403
2018-07-15T06:26:37.658Z,10457
2018-07-15T06:27:07.558Z,10520
2018-07-15T06:27:37.638Z,10423
2018-07-15T06:28:07.663Z,10483
2018-07-15T06:28:37.671Z,10347
2018-07-15T06:29:07.700Z,10280
2018-07-15T06:29:37.739Z,10357
2018-07-15T06:30:07.753Z,10360
2018-07-15T06:30:37.813Z,10380
2018-07-15T06:31:07.839Z,10350
2018-07-15T06:31:37.979Z,10347
2018-07-15T06:32:07.853Z,10350
2018-07-15T06:32:37.916Z,10357
2018-07-15T06:33:07.930Z,10370
2018-07-15T06:33:37.982Z,10380
2018-07-15T06:34:07.984Z,10387
2018-07-15T06:35:08.063Z,10390
2018-07-15T06:35:38.065Z,10423
2018-07-15T06:36:08.094Z,10430
2018-07-15T06:36:38.357Z,10503
2018-07-15T06:37:08.162Z,10443
2018-07-15T06:37:38.228Z,10457
2018-07-15T06:38:08.246Z,10477
2018-07-15T06:38:38.282Z,10497
2018-07-15T06:39:08.311Z,10493
2018-07-15T06:39:38.369Z,10603
2018-07-15T06:40:08.367Z,10607
2018-07-15T06:40:38.412Z,10603
2018-07-15T06:41:08.404Z,10663
2018-07-15T06:41:38.573Z,10723
2018-07-15T06:42:08.517Z,10470
2018-07-15T06:42:38.544Z,10493
2018-07-15T06:43:08.515Z,10480
2018-07-15T06:43:38.778Z,10483
2018-07-15T06:44:08.809Z,10493
2018-07-15T06:44:38.842Z,10523
2018-07-15T06:45:08.862Z,10517
2018-07-15T06:45:38.890Z,10603
2018-07-15T06:46:08.933Z,10533
2018-07-15T06:46:39.070Z,10550
2018-07-15T06:47:08.993Z,10567
2018-07-15T06:47:39.053Z,10627
2018-07-15T06:48:09.086Z,10607
2018-07-15T06:48:39.064Z,10673
2018-07-15T06:49:09.180Z,10710
2018-07-15T06:49:39.128Z,10873
2018-07-15T06:50:09.221Z,10937
2018-07-15T06:50:39.240Z,11160
2018-07-15T06:51:09.488Z,11183
2018-07-15T06:51:39.285Z,11287
2018-07-15T06:52:09.348Z,10750
2018-07-15T06:52:39.369Z,10710
2018-07-15T06:53:09.412Z,10707
2018-07-15T06:53:39.411Z,10693
2018-07-15T06:54:09.460Z,10687
2018-07-15T06:55:09.524Z,10690
2018-07-15T06:55:39.507Z,10697
2018-07-15T06:56:09.694Z,10707
2018-07-15T06:56:39.591Z,10720
2018-07-15T06:57:09.644Z,10730
2018-07-15T06:57:39.620Z,10750
2018-07-15T06:58:09.660Z,10763
2018-07-15T06:58:39.747Z,10777
2018-07-15T06:59:09.714Z,10793
2018-07-15T06:59:39.758Z,10810
2018-07-15T07:00:09.810Z,10820
2018-07-15T07:00:39.812Z,10830
2018-07-15T07:01:10.371Z,10843
2018-07-15T07:01:39.888Z,10860
2018-07-15T07:02:39.926Z,10863
2018-07-15T07:03:09.984Z,10870
2018-07-15T07:03:40.006Z,10877
2018-07-15T07:04:10.029Z,10880
2018-07-15T07:05:40.126Z,11100
2018-07-15T07:06:10.317Z,11847
2018-07-15T07:06:40.229Z,11707
2018-07-15T07:07:10.358Z,11427
2018-07-15T07:07:40.323Z,12130
2018-07-15T07:08:10.299Z,11713
2018-07-15T07:08:40.323Z,12537
2018-07-15T07:09:10.377Z,13350
2018-07-15T07:09:40.376Z,11220
2018-07-15T07:10:10.429Z,11827
2018-07-15T07:10:40.437Z,11027
2018-07-15T07:11:40.655Z,11117
2018-07-15T07:12:10.557Z,11137
2018-07-15T07:12:40.614Z,11083
2018-07-15T07:13:10.624Z,11077
2018-07-15T07:13:40.667Z,11103
2018-07-15T07:14:10.739Z,11110
2018-07-15T07:14:40.671Z,11130
2018-07-15T07:15:10.742Z,11147
2018-07-15T07:15:40.755Z,11160
2018-07-15T07:16:10.762Z,11170
2018-07-15T07:16:40.962Z,11473
2018-07-15T07:17:11.475Z,11320
2018-07-15T07:17:41.578Z,11280
2018-07-15T07:18:11.536Z,11323
2018-07-15T07:18:41.617Z,11430
2018-07-15T07:19:11.620Z,11253
2018-07-15T07:19:41.628Z,11427
2018-07-15T07:20:11.638Z,11307
2018-07-15T07:20:41.843Z,11657
2018-07-15T07:21:11.762Z,11397
2018-07-15T07:21:41.746Z,11430
2018-07-15T07:22:11.768Z,11477
2018-07-15T07:22:41.805Z,11533
2018-07-15T07:23:11.854Z,11603
2018-07-15T07:23:41.871Z,11643
2018-07-15T07:24:11.888Z,11733
2018-07-15T07:24:41.921Z,11760
2018-07-15T07:25:11.951Z,11743
2018-07-15T07:25:42.192Z,11780
2018-07-15T07:26:12.143Z,11773
2018-07-15T07:26:42.203Z,12460
2018-07-15T07:27:12.261Z,12423
2018-07-15T07:27:42.243Z,14437
2018-07-15T07:28:12.476Z,13337
2018-07-15T07:28:42.340Z,17083
2018-07-15T07:29:12.390Z,15230
2018-07-15T07:29:42.378Z,15907
2018-07-15T07:30:12.409Z,17103
2018-07-15T07:30:42.492Z,14643
2018-07-15T07:31:12.522Z,12533
2018-07-15T07:31:42.554Z,12140
2018-07-15T07:32:12.550Z,12103
2018-07-15T07:32:42.605Z,12137
2018-07-15T07:33:12.733Z,14937
2018-07-15T07:33:42.673Z,13627
2018-07-15T07:34:12.702Z,13200
2018-07-15T07:34:42.713Z,14413
2018-07-15T07:35:12.752Z,14353
2018-07-15T07:35:42.818Z,13647
2018-07-15T07:36:12.804Z,13703
2018-07-15T07:36:42.854Z,13037
2018-07-15T07:37:13.642Z,13153
2018-07-15T07:37:42.912Z,12423
2018-07-15T07:38:13.066Z,12393
2018-07-15T07:38:43.052Z,12310
2018-07-15T07:39:12.992Z,12903
2018-07-15T07:39:43.025Z,12923
2018-07-15T07:40:13.052Z,12580
2018-07-15T07:40:43.097Z,13407
2018-07-15T07:41:13.164Z,13153
2018-07-15T07:41:43.183Z,24743
2018-07-15T07:42:13.177Z,21483
2018-07-15T07:42:43.230Z,14903
2018-07-15T07:43:13.508Z,14383
2018-07-15T07:43:43.269Z,13583
2018-07-15T07:44:13.350Z,26740
2018-07-15T07:44:43.420Z,28583
2018-07-15T07:45:13.445Z,21280
2018-07-15T07:45:43.451Z,20783
2018-07-15T07:46:13.508Z,15630
2018-07-15T07:46:43.504Z,17573
2018-07-15T07:47:13.505Z,25010
2018-07-15T07:47:43.559Z,41470
2018-07-15T07:48:13.725Z,20820
2018-07-15T07:48:44.128Z,13973
2018-07-15T07:49:13.646Z,15927
2018-07-15T07:49:43.670Z,34080
2018-07-15T07:50:13.704Z,55560
2018-07-15T07:50:43.743Z,24523
2018-07-15T07:51:13.799Z,95703
2018-07-15T07:51:43.818Z,37510
2018-07-15T07:52:13.845Z,35383
2018-07-15T07:52:43.860Z,100140
2018-07-15T07:53:14.063Z,99983
2018-07-15T07:53:44.147Z,100523
2018-07-15T07:54:14.064Z,100773
2018-07-15T07:54:44.095Z,101730
2018-07-15T07:55:14.119Z,101417
2018-07-15T07:55:44.149Z,101253
2018-07-15T07:56:14.142Z,100737
2018-07-15T07:56:44.213Z,101883
2018-07-15T07:57:14.260Z,102260
2018-07-15T07:57:44.311Z,101697
2018-07-15T07:58:14.316Z,101047
2018-07-15T07:58:44.859Z,102940
2018-07-15T07:59:14.377Z,96870
2018-07-15T07:59:44.374Z,102917
2018-07-15T08:00:14.435Z,101977
2018-07-15T08:00:44.458Z,102983
2018-07-15T08:01:14.459Z,103757
2018-07-15T08:01:44.517Z,104277
2018-07-15T08:02:14.566Z,104260
2018-07-15T08:02:44.594Z,103777
2018-07-15T08:03:14.597Z,17060
2018-07-15T08:03:44.769Z,85780
2018-07-15T08:04:14.640Z,104127
2018-07-15T08:04:44.666Z,84447
2018-07-15T08:05:14.703Z,106277
2018-07-15T08:05:44.784Z,105887
2018-07-15T08:06:14.777Z,106287
2018-07-15T08:06:44.832Z,107307
2018-07-15T08:07:14.820Z,107337
2018-07-15T08:07:44.922Z,108233
2018-07-15T08:08:14.899Z,109073
2018-07-15T08:08:45.029Z,108693
2018-07-15T08:09:14.946Z,107733
2018-07-15T08:09:45.021Z,107027
2018-07-15T08:10:15.028Z,108400
2018-07-15T08:10:45.031Z,108470
2018-07-15T08:11:15.088Z,108490
2018-07-15T08:11:45.137Z,109183
2018-07-15T08:12:15.125Z,109263
2018-07-15T08:12:45.161Z,110920
2018-07-15T08:13:15.244Z,110483
2018-07-15T08:13:45.473Z,110817
2018-07-15T08:14:15.321Z,111240
2018-07-15T08:14:45.352Z,111507
2018-07-15T08:15:15.394Z,111970
2018-07-15T08:15:45.353Z,111897
2018-07-15T08:16:15.440Z,108177
2018-07-15T08:16:45.450Z,106410
2018-07-15T08:17:15.469Z,103977
2018-07-15T08:17:45.477Z,100480
2018-07-15T08:18:15.557Z,77653
2018-07-15T08:18:46.073Z,95540
2018-07-15T08:19:15.586Z,60910
2018-07-15T08:19:45.624Z,40340
2018-07-15T08:20:15.661Z,33123
2018-07-15T08:20:45.678Z,31913
2018-07-15T08:21:15.725Z,28067
2018-07-15T08:21:45.713Z,32287
2018-07-15T08:22:15.932Z,34093
2018-07-15T08:22:45.967Z,114257
2018-07-15T08:23:15.985Z,33943
2018-07-15T08:23:46.154Z,118913
2018-07-15T08:24:16.051Z,49127
2018-07-15T08:24:46.105Z,67840
2018-07-15T08:25:16.119Z,108470
2018-07-15T08:25:46.189Z,83547
2018-07-15T08:26:16.209Z,85370
2018-07-15T08:26:46.211Z,72007
2018-07-15T08:27:16.283Z,114887
2018-07-15T08:27:46.307Z,98300
2018-07-15T08:28:16.417Z,104897
2018-07-15T08:28:46.370Z,99380
2018-07-15T08:29:16.357Z,92830
2018-07-15T08:29:46.429Z,119340
2018-07-15T08:30:16.470Z,119163
2018-07-15T08:30:46.455Z,119590
2018-07-15T08:31:16.558Z,114090
2018-07-15T08:31:46.602Z,120677
2018-07-15T08:32:16.584Z,120900
2018-07-15T08:32:46.634Z,121297
2018-07-15T08:33:16.631Z,121377
2018-07-15T08:33:46.683Z,121170
2018-07-15T08:34:16.709Z,121590
2018-07-15T08:34:46.806Z,121653
2018-07-15T08:35:16.775Z,121720
2018-07-15T08:35:46.808Z,121600
2018-07-15T08:36:16.843Z,121607
2018-07-15T08:36:46.845Z,121837
2018-07-15T08:37:16.947Z,121830
2018-07-15T08:37:46.934Z,121793
2018-07-15T08:38:16.966Z,122190
2018-07-15T08:38:46.985Z,122260
2018-07-15T08:39:17.020Z,121983
2018-07-15T08:39:47.054Z,122007
2018-07-15T08:40:17.112Z,121913
2018-07-15T08:40:47.143Z,121600
2018-07-15T08:41:17.160Z,121730
2018-07-15T08:41:47.164Z,121297
2018-07-15T08:42:17.212Z,120747
2018-07-15T08:42:47.245Z,120910
2018-07-15T08:43:17.284Z,121257
2018-07-15T08:43:47.306Z,121867
2018-07-15T08:44:17.294Z,122200
2018-07-15T08:44:47.345Z,122440
2018-07-15T08:45:17.407Z,122083
2018-07-15T08:45:47.468Z,121487
2018-07-15T08:46:17.422Z,121007
2018-07-15T08:46:47.479Z,120350
2018-07-15T08:47:17.527Z,120890
2018-07-15T08:47:47.511Z,120863
2018-07-15T08:48:17.558Z,120307
2018-07-15T08:48:47.576Z,120673
2018-07-15T08:49:17.646Z,120423
2018-07-15T08:49:47.641Z,120223
2018-07-15T08:50:17.666Z,120197
2018-07-15T08:50:47.737Z,119860
2018-07-15T08:51:17.727Z,119950
2018-07-15T08:51:47.815Z,119507
2018-07-15T08:52:17.836Z,119747
2018-07-15T08:52:47.820Z,120250
2018-07-15T08:53:17.864Z,120433
2018-07-15T08:53:47.898Z,120900
2018-07-15T08:54:17.916Z,120540
2018-07-15T08:54:48.069Z,119767
2018-07-15T08:55:18.011Z,118433
2018-07-15T08:55:48.049Z,119187
2018-07-15T08:56:18.034Z,119260
2018-07-15T08:56:48.059Z,119393
2018-07-15T08:57:18.140Z,118317
2018-07-15T08:57:48.124Z,117520
2018-07-15T08:58:18.162Z,116557
2018-07-15T08:58:48.230Z,118077
2018-07-15T08:59:18.353Z,119220
2018-07-15T08:59:48.316Z,119230
2018-07-15T09:00:18.277Z,118917
2018-07-15T09:00:48.381Z,119483
2018-07-15T09:01:18.350Z,119900
2018-07-15T09:01:48.406Z,119743
2018-07-15T09:02:18.455Z,120747
2018-07-15T09:02:48.453Z,121607
2018-07-15T09:03:18.558Z,122173
2018-07-15T09:03:48.564Z,122563
2018-07-15T09:04:18.688Z,123253
2018-07-15T09:04:48.572Z,123830
2018-07-15T09:05:18.631Z,124420
2018-07-15T09:05:48.615Z,124800
2018-07-15T09:06:18.670Z,125213
2018-07-15T09:06:48.721Z,125920
2018-07-15T09:07:18.715Z,126607
2018-07-15T09:07:48.769Z,126993
2018-07-15T09:08:18.780Z,127443
2018-07-15T09:08:48.817Z,127677
2018-07-15T09:09:18.964Z,127630
2018-07-15T09:09:49.110Z,127637
2018-07-15T09:10:18.895Z,127047
2018-07-15T09:10:48.927Z,127923
2018-07-15T09:11:19.022Z,128213
2018-07-15T09:11:48.991Z,128270
2018-07-15T09:12:19.278Z,127320
2018-07-15T09:12:49.329Z,127517
2018-07-15T09:13:19.629Z,127917
2018-07-15T09:13:49.708Z,126703
2018-07-15T09:14:19.749Z,125440
2018-07-15T09:14:50.018Z,124713
2018-07-15T09:15:19.799Z,123790
2018-07-15T09:15:49.801Z,123947
2018-07-15T09:16:19.871Z,122847
2018-07-15T09:16:49.923Z,119270
2018-07-15T09:17:19.929Z,122327
2018-07-15T09:17:49.956Z,126393